Time;durP1;ratioP1;P1;durP2;ratioP2;P2;SDS_P1;SDS_P2;PMS_P1;PMS_P2;Temp;Humidity;BMP_temperature;BMP_pressure;BME280_temperature;BME280_humidity;BME280_pressure;Samples;Min_cycle;Max_cycle;Signal;HPM_P1;HPM_P2
2022/08/18 00:02:19;;;;;;;4.40;2.90;;;;;;;18.09;100.00;96017.66;5061769;28;20237;-78
2022/08/18 00:04:47;;;;;;;4.13;3.10;;;;;;;18.06;100.00;96010.00;5080801;28;20193;-78
2022/08/18 00:07:16;;;;;;;4.40;2.90;;;;;;;18.07;100.00;96014.38;5065938;28;20208;-78
2022/08/18 00:09:45;;;;;;;3.67;3.20;;;;;;;18.06;100.00;96018.22;5072308;28;20208;-78
2022/08/18 00:12:15;;;;;;;3.80;2.80;;;;;;;18.10;100.00;95997.44;5070579;28;20243;-79
2022/08/18 00:14:45;;;;;;;2.73;2.53;;;;;;;18.10;100.00;96007.53;5065691;28;20219;-78
2022/08/18 00:17:13;;;;;;;5.17;2.77;;;;;;;18.10;100.00;95989.22;5070314;28;20200;-79
2022/08/18 00:19:40;;;;;;;2.90;2.70;;;;;;;18.14;100.00;95984.81;5068627;28;20205;-78
2022/08/18 00:22:07;;;;;;;3.83;2.80;;;;;;;18.05;100.00;95978.31;5074580;28;20197;-78
2022/08/18 00:24:35;;;;;;;3.90;2.80;;;;;;;18.06;100.00;95977.22;5067823;28;20208;-78
2022/08/18 00:27:02;;;;;;;3.57;2.70;;;;;;;18.04;100.00;95976.69;5072009;28;20213;-78
2022/08/18 00:29:29;;;;;;;3.73;2.30;;;;;;;18.06;100.00;95971.75;5068412;28;20201;-78
2022/08/18 00:31:57;;;;;;;4.47;2.90;;;;;;;18.12;100.00;95969.78;5077631;28;20282;-79
2022/08/18 00:34:24;;;;;;;2.90;2.40;;;;;;;18.09;100.00;95979.41;5084497;28;20201;-78
2022/08/18 00:36:51;;;;;;;3.97;2.87;;;;;;;18.11;100.00;95979.94;5059893;28;20299;-78
2022/08/18 00:39:18;;;;;;;2.57;2.37;;;;;;;18.14;100.00;95965.69;5076482;28;20200;-78
2022/08/18 00:41:45;;;;;;;2.67;2.47;;;;;;;18.18;100.00;95965.94;5066246;28;20204;-78
2022/08/18 00:44:15;;;;;;;2.90;2.57;;;;;;;18.14;100.00;95973.88;5091454;28;20200;-78
2022/08/18 00:46:42;;;;;;;6.43;2.80;;;;;;;18.00;100.00;95962.00;5093916;28;20288;-78
2022/08/18 00:49:11;;;;;;;2.47;2.03;;;;;;;17.93;100.00;95969.72;5074406;28;20284;-78
2022/08/18 00:51:41;;;;;;;3.30;2.70;;;;;;;17.75;100.00;95959.47;5073581;28;20228;-78
2022/08/18 00:54:13;;;;;;;4.43;2.63;;;;;;;17.68;100.00;95958.97;5094132;28;20294;-79
2022/08/18 00:56:45;;;;;;;4.13;2.70;;;;;;;17.63;100.00;95950.81;5093871;28;20217;-78
2022/08/18 00:59:18;;;;;;;2.63;2.40;;;;;;;17.70;100.00;95948.56;5072776;28;20202;-78
2022/08/18 01:01:49;;;;;;;3.20;2.90;;;;;;;17.73;100.00;95939.81;5073621;28;20230;-79
2022/08/18 01:04:22;;;;;;;3.13;2.77;;;;;;;17.77;100.00;95935.44;5062155;28;20198;-78
2022/08/18 01:06:53;;;;;;;2.70;2.50;;;;;;;17.89;100.00;95938.59;5055375;28;20206;-78
2022/08/18 01:09:22;;;;;;;3.13;2.80;;;;;;;17.88;100.00;95947.88;5049936;28;20225;-78
2022/08/18 01:11:50;;;;;;;5.17;3.03;;;;;;;17.89;100.00;95927.66;5049627;28;20215;-78
2022/08/18 01:14:17;;;;;;;3.53;2.93;;;;;;;17.92;100.00;95918.09;5047369;28;20194;-78
2022/08/18 01:22:22;;;;;;;3.27;2.90;;;;;;;17.83;100.00;95922.53;5045265;28;20288;-78
2022/08/18 01:27:40;;;;;;;3.60;2.93;;;;;;;17.84;100.00;95914.06;5040690;28;20344;-78
2022/08/18 01:30:10;;;;;;;4.03;3.20;;;;;;;17.85;100.00;95902.03;5027564;28;20198;-77
2022/08/18 01:32:39;;;;;;;3.53;2.73;;;;;;;17.87;100.00;95897.09;5036404;28;20262;-78
2022/08/18 01:35:10;;;;;;;7.10;3.20;;;;;;;17.93;100.00;95889.69;5056922;28;20206;-79
2022/08/18 01:37:37;;;;;;;4.57;3.33;;;;;;;17.91;100.00;95887.22;5020511;28;20268;-78
2022/08/18 01:40:09;;;;;;;3.50;2.90;;;;;;;17.97;100.00;95880.59;5024010;28;20226;-79
2022/08/18 01:42:37;;;;;;;3.20;2.90;;;;;;;17.99;100.00;95885.78;5038716;28;20214;-78
2022/08/18 01:45:06;;;;;;;3.20;2.90;;;;;;;17.94;100.00;95881.19;5038056;28;20574;-78
2022/08/18 01:47:34;;;;;;;3.63;2.80;;;;;;;17.96;100.00;95862.59;5048295;28;20214;-78
2022/08/18 01:50:02;;;;;;;3.77;3.10;;;;;;;17.93;100.00;95865.91;5042360;28;20226;-78
2022/08/18 01:52:29;;;;;;;3.70;3.27;;;;;;;17.94;100.00;95864.81;5027088;28;20228;-78
2022/08/18 01:54:57;;;;;;;3.87;3.07;;;;;;;17.92;100.00;95852.53;5033668;28;20202;-78
2022/08/18 01:57:26;;;;;;;4.27;3.20;;;;;;;17.90;100.00;95855.56;5027831;28;20226;-78
2022/08/18 01:59:54;;;;;;;6.97;3.47;;;;;;;17.86;100.00;95853.69;5042468;28;20289;-78
2022/08/18 02:02:24;;;;;;;3.53;2.97;;;;;;;17.87;100.00;95847.09;5048678;28;20234;-78
2022/08/18 02:04:56;;;;;;;3.10;2.73;;;;;;;17.84;100.00;95847.69;5031542;28;20249;-78
2022/08/18 02:07:23;;;;;;;3.53;2.80;;;;;;;17.86;100.00;95850.97;5027272;28;20210;-79
2022/08/18 02:09:50;;;;;;;3.17;2.80;;;;;;;17.90;100.00;95858.28;5047628;28;20205;-78
2022/08/18 02:12:17;;;;;;;3.87;3.00;;;;;;;17.88;100.00;95844.09;5029180;28;20230;-78
2022/08/18 02:14:46;;;;;;;3.57;2.90;;;;;;;17.86;100.00;95840.84;5031629;28;20225;-78
2022/08/18 02:17:14;;;;;;;3.67;3.00;;;;;;;17.87;100.00;95837.00;5038606;28;20210;-78
2022/08/18 02:19:44;;;;;;;3.20;2.73;;;;;;;17.88;100.00;95846.81;5042576;28;20207;-77
2022/08/18 02:22:13;;;;;;;4.00;3.10;;;;;;;17.94;100.00;95832.03;5036318;28;20198;-78
2022/08/18 02:24:41;;;;;;;5.03;4.00;;;;;;;18.02;100.00;95828.66;5029005;28;20228;-77
2022/08/18 02:27:11;;;;;;;4.30;3.40;;;;;;;18.04;100.00;95829.16;5034742;28;20260;-78
2022/08/18 02:29:38;;;;;;;4.93;3.37;;;;;;;18.10;100.00;95836.22;5054408;28;20285;-78
2022/08/18 02:32:07;;;;;;;3.57;3.20;;;;;;;18.12;100.00;95839.47;5053276;28;20220;-78
2022/08/18 02:34:34;;;;;;;3.43;3.13;;;;;;;18.15;100.00;95833.44;5031966;28;20271;-77
2022/08/18 02:37:02;;;;;;;4.07;3.43;;;;;;;18.15;100.00;95825.22;5029796;28;20205;-77
2022/08/18 02:39:29;;;;;;;4.33;3.13;;;;;;;18.19;100.00;95820.00;5023101;28;20257;-77
2022/08/18 02:41:56;;;;;;;4.43;3.00;;;;;;;18.22;100.00;95827.59;5033213;28;20298;-77
2022/08/18 02:44:23;;;;;;;3.60;2.80;;;;;;;18.17;100.00;95826.84;5053499;28;20213;-78
2022/08/18 02:46:53;;;;;;;5.70;3.03;;;;;;;18.11;100.00;95835.13;5054106;28;20217;-77
2022/08/18 02:49:21;;;;;;;3.37;3.07;;;;;;;18.13;100.00;95841.09;5029328;28;20306;-77
2022/08/18 02:51:49;;;;;;;4.40;3.30;;;;;;;18.15;100.00;95844.34;5046074;28;20231;-77
2022/08/18 02:54:18;;;;;;;3.47;3.00;;;;;;;18.10;100.00;95840.88;5040203;28;20207;-77
2022/08/18 02:56:46;;;;;;;4.03;3.23;;;;;;;18.02;100.00;95834.13;5027914;28;20301;-77
2022/08/18 02:59:16;;;;;;;4.53;3.23;;;;;;;17.97;100.00;95845.09;5031504;28;20212;-76
2022/08/18 03:01:46;;;;;;;8.10;3.73;;;;;;;17.89;100.00;95850.38;5033334;28;20266;-76
2022/08/18 03:04:16;;;;;;;5.73;3.50;;;;;;;17.80;100.00;95861.09;5032731;28;20197;-76
2022/08/18 03:06:45;;;;;;;9.03;3.60;;;;;;;17.78;100.00;95868.75;5028766;28;20217;-76
2022/08/18 03:09:14;;;;;;;8.97;3.73;;;;;;;17.75;100.00;95872.09;5049122;28;20225;-76
2022/08/18 03:11:42;;;;;;;4.57;4.17;;;;;;;17.73;100.00;95879.75;5041791;28;20224;-76
2022/08/18 03:14:09;;;;;;;6.00;3.83;;;;;;;17.71;100.00;95881.94;5038847;28;20246;-77
2022/08/18 03:16:39;;;;;;;4.13;3.67;;;;;;;17.72;100.00;95878.09;5029349;28;20246;-77
2022/08/18 03:19:06;;;;;;;5.83;3.93;;;;;;;17.72;100.00;95894.50;5042219;28;20209;-77
2022/08/18 03:21:34;;;;;;;5.53;3.80;;;;;;;17.66;100.00;95899.19;5044690;28;20209;-77
2022/08/18 03:24:05;;;;;;;6.57;3.87;;;;;;;17.61;100.00;95915.56;5050678;28;20217;-77
2022/08/18 03:26:32;;;;;;;4.90;3.73;;;;;;;17.52;100.00;95919.22;5055236;28;20213;-77
2022/08/18 03:29:00;;;;;;;5.73;3.73;;;;;;;17.54;100.00;95915.06;5045731;28;20194;-76
2022/08/18 03:31:31;;;;;;;5.37;3.40;;;;;;;17.51;100.00;95914.84;5040478;28;20273;-77
2022/08/18 03:34:00;;;;;;;5.70;4.10;;;;;;;17.52;100.00;95897.38;5037122;28;20221;-77
2022/08/18 03:36:30;;;;;;;6.30;3.70;;;;;;;17.50;100.00;95894.94;5042990;28;20297;-77
2022/08/18 03:38:58;;;;;;;6.87;4.57;;;;;;;17.56;100.00;95912.06;5042220;28;20206;-78
2022/08/18 03:41:28;;;;;;;7.47;4.30;;;;;;;17.59;100.00;95933.34;5044756;28;20203;-77
2022/08/18 03:43:55;;;;;;;8.33;5.90;;;;;;;17.51;100.00;95939.41;5026161;28;20206;-77
2022/08/18 03:46:23;;;;;;;6.47;4.87;;;;;;;17.41;100.00;95921.19;5034384;28;20214;-77
2022/08/18 03:48:52;;;;;;;6.10;4.00;;;;;;;17.32;100.00;95890.16;5030823;28;20293;-77
2022/08/18 03:51:23;;;;;;;6.50;4.20;;;;;;;17.27;100.00;95850.06;5043512;28;20199;-77
2022/08/18 03:53:51;;;;;;;5.47;4.27;;;;;;;17.40;100.00;95808.47;5040794;28;20213;-77
2022/08/18 03:56:21;;;;;;;7.60;4.33;;;;;;;17.43;100.00;95787.19;5032970;28;20225;-77
2022/08/18 03:58:52;;;;;;;5.07;3.80;;;;;;;17.32;100.00;95767.34;5041518;28;20261;-77
2022/08/18 04:01:21;;;;;;;7.03;4.10;;;;;;;17.21;100.00;95747.53;5030439;28;20232;-76
2022/08/18 04:03:55;;;;;;;5.93;4.00;;;;;;;17.21;100.00;95771.25;5037900;28;20213;-77
2022/08/18 04:06:25;;;;;;;6.40;4.43;;;;;;;17.27;100.00;95759.19;5029815;28;20210;-78
2022/08/18 04:08:53;;;;;;;6.20;3.90;;;;;;;17.34;100.00;95730.50;5051692;28;20210;-77
2022/08/18 04:11:21;;;;;;;6.97;4.83;;;;;;;17.32;100.00;95738.16;5044142;28;20214;-77
2022/08/18 04:13:50;;;;;;;7.97;5.27;;;;;;;17.20;100.00;95748.63;5027605;28;20210;-77
2022/08/18 04:16:17;;;;;;;9.80;4.60;;;;;;;17.19;100.00;95754.34;5024367;28;20206;-77
2022/08/18 04:18:44;;;;;;;7.07;4.50;;;;;;;17.16;100.00;95733.94;5045992;28;20214;-77
2022/08/18 04:21:13;;;;;;;12.90;4.67;;;;;;;17.21;100.00;95722.16;5022343;28;20237;-77
2022/08/18 04:23:41;;;;;;;7.27;4.27;;;;;;;17.12;100.00;95712.97;5048176;28;20256;-77
2022/08/18 04:26:11;;;;;;;4.80;3.70;;;;;;;17.18;100.00;95704.44;5036531;28;20202;-76
2022/08/18 04:28:40;;;;;;;5.20;4.20;;;;;;;17.18;100.00;95701.72;5044244;28;20198;-76
2022/08/18 04:31:11;;;;;;;7.70;3.57;;;;;;;17.28;100.00;95703.53;5045771;28;20198;-77
2022/08/18 04:33:39;;;;;;;6.60;3.90;;;;;;;17.40;100.00;95696.59;5055552;28;20225;-76
2022/08/18 04:36:11;;;;;;;4.73;3.60;;;;;;;17.44;100.00;95696.81;5038361;28;20214;-76
2022/08/18 04:38:41;;;;;;;6.67;3.97;;;;;;;17.39;100.00;95703.16;5041696;28;20206;-76
2022/08/18 04:41:09;;;;;;;6.63;4.20;;;;;;;17.36;100.00;95700.16;5042387;28;20213;-77
2022/08/18 04:43:36;;;;;;;8.30;4.90;;;;;;;17.29;100.00;95695.06;5031545;28;20216;-76
2022/08/18 04:46:04;;;;;;;4.93;4.43;;;;;;;17.30;100.00;95693.97;5049072;28;20264;-76
2022/08/18 04:48:33;;;;;;;7.23;4.13;;;;;;;17.25;100.00;95691.31;5030383;28;20348;-77
2022/08/18 04:51:06;;;;;;;5.37;3.90;;;;;;;17.28;100.00;95687.97;5049533;28;20204;-75
2022/08/18 04:53:45;;;;;;;8.13;4.03;;;;;;;17.29;100.00;95695.06;5040632;28;20229;-76
2022/08/18 04:56:20;;;;;;;5.87;4.00;;;;;;;17.29;100.00;95689.59;5035729;28;20237;-76
2022/08/18 04:58:50;;;;;;;4.23;3.83;;;;;;;17.24;100.00;95697.03;5021563;28;20223;-76
2022/08/18 05:01:17;;;;;;;6.80;4.60;;;;;;;17.26;100.00;95701.13;5046959;28;20237;-76
2022/08/18 05:03:45;;;;;;;4.57;3.83;;;;;;;17.25;100.00;95702.22;5066514;28;20197;-76
2022/08/18 05:06:13;;;;;;;5.63;3.80;;;;;;;17.30;100.00;95707.59;5091200;28;20209;-76
2022/08/18 05:08:40;;;;;;;5.23;3.53;;;;;;;17.37;100.00;95719.00;5068614;28;20228;-77
2022/08/18 05:11:07;;;;;;;4.83;3.63;;;;;;;17.43;100.00;95740.78;5087777;28;20204;-76
2022/08/18 05:13:34;;;;;;;7.27;3.43;;;;;;;17.49;100.00;95736.91;5073773;28;20217;-77
2022/08/18 05:16:03;;;;;;;5.60;3.63;;;;;;;17.50;100.00;95754.91;5078462;28;20200;-76
2022/08/18 05:18:31;;;;;;;7.20;3.57;;;;;;;17.49;100.00;95769.66;5068787;28;20208;-77
2022/08/18 05:21:00;;;;;;;4.47;3.50;;;;;;;17.45;100.00;95774.03;5069523;28;20203;-77
2022/08/18 05:23:28;;;;;;;5.43;3.60;;;;;;;17.40;100.00;95783.09;5092393;28;20205;-77
2022/08/18 05:25:59;;;;;;;5.43;4.03;;;;;;;17.42;100.00;95808.19;5071156;28;20196;-77
2022/08/18 05:28:26;;;;;;;7.67;4.00;;;;;;;17.35;100.00;95803.06;5065207;28;20305;-76
2022/08/18 05:30:53;;;;;;;5.20;4.30;;;;;;;17.37;100.00;95811.78;5073199;28;20193;-77
2022/08/18 05:33:20;;;;;;;5.40;4.30;;;;;;;17.35;100.00;95827.59;5073676;28;20263;-78
2022/08/18 05:35:51;;;;;;;5.33;3.83;;;;;;;17.38;100.00;95837.16;5073135;28;20193;-78
2022/08/18 05:38:34;;;;;;;8.40;4.70;;;;;;;17.42;100.00;95834.69;5073901;28;20286;-77
2022/08/18 05:41:15;;;;;;;4.87;3.97;;;;;;;17.44;100.00;95844.19;5070787;28;20225;-76
2022/08/18 05:43:45;;;;;;;6.50;4.30;;;;;;;17.47;100.00;95843.63;5082042;28;20201;-77
2022/08/18 05:46:13;;;;;;;7.90;4.10;;;;;;;17.46;100.00;95830.25;5068543;28;20212;-77
2022/08/18 05:48:40;;;;;;;4.67;3.83;;;;;;;17.40;100.00;95830.31;5073027;28;20200;-77
2022/08/18 05:51:23;;;;;;;5.73;3.80;;;;;;;17.42;100.00;95840.94;5071755;28;20223;-77
2022/08/18 05:56:49;;;;;;;6.53;3.90;;;;;;;17.55;100.00;95828.53;5091319;28;20231;-76
2022/08/18 05:59:27;;;;;;;6.23;3.83;;;;;;;17.55;100.00;95840.28;5076107;28;20219;-77
2022/08/18 06:02:01;;;;;;;4.87;3.80;;;;;;;17.60;100.00;95842.16;5071201;28;20237;-77
2022/08/18 06:04:41;;;;;;;5.70;4.10;;;;;;;17.64;100.00;95841.31;5065847;28;20268;-77
2022/08/18 06:07:13;;;;;;;5.97;3.53;;;;;;;17.67;100.00;95848.13;5084218;28;20209;-77
2022/08/18 06:09:47;;;;;;;5.83;4.40;;;;;;;17.68;100.00;95855.22;5067988;28;20205;-77
2022/08/18 06:12:27;;;;;;;5.93;3.80;;;;;;;17.71;100.00;95855.44;5071773;28;20272;-77
2022/08/18 06:15:02;;;;;;;4.90;3.93;;;;;;;17.77;100.00;95850.78;5068397;28;20260;-77
2022/08/18 06:17:45;;;;;;;4.80;3.73;;;;;;;17.87;100.00;95858.84;5063506;28;20292;-77
2022/08/18 06:20:22;;;;;;;12.27;4.60;;;;;;;17.92;100.00;95856.09;5076214;28;20200;-77
2022/08/18 06:22:57;;;;;;;4.57;3.60;;;;;;;17.96;100.00;95862.59;5043973;28;20217;-77
2022/08/18 06:28:17;;;;;;;4.70;3.77;;;;;;;18.09;100.00;95856.44;5059790;27;20572;-78
2022/08/18 06:30:56;;;;;;;6.77;3.80;;;;;;;18.14;100.00;95869.22;5056245;28;20210;-78
2022/08/18 06:33:41;;;;;;;5.20;4.07;;;;;;;18.29;100.00;95871.78;5054277;28;20207;-77
2022/08/18 06:36:18;;;;;;;5.20;4.07;;;;;;;18.42;100.00;95876.56;5057049;28;20240;-78
2022/08/18 06:38:56;;;;;;;5.60;3.60;;;;;;;18.44;100.00;95879.84;5043481;28;20255;-79
2022/08/18 06:41:35;;;;;;;4.77;3.77;;;;;;;18.43;100.00;95889.16;5054530;28;20220;-79
2022/08/18 06:44:07;;;;;;;6.47;3.83;;;;;;;18.44;100.00;95873.56;5038803;28;20198;-78
2022/08/18 06:46:42;;;;;;;6.13;4.77;;;;;;;18.46;100.00;95874.88;5037892;28;20249;-79
2022/08/18 06:49:11;;;;;;;4.20;3.30;;;;;;;18.56;100.00;95881.31;5039030;28;20532;-78
2022/08/18 06:51:39;;;;;;;4.23;3.73;;;;;;;18.61;100.00;95895.00;5037008;28;20292;-79
2022/08/18 06:54:08;;;;;;;9.07;3.90;;;;;;;18.63;100.00;95893.56;5033686;28;20206;-78
2022/08/18 06:56:49;;;;;;;5.70;4.20;;;;;;;18.64;100.00;95899.84;5052577;28;20317;-78
2022/08/18 06:59:22;;;;;;;7.83;3.83;;;;;;;18.74;100.00;95906.00;5040621;28;20206;-78
2022/08/18 07:01:53;;;;;;;6.43;3.90;;;;;;;18.69;100.00;95902.53;5041618;28;20213;-78
2022/08/18 07:04:39;;;;;;;3.90;3.60;;;;;;;18.73;100.00;95903.56;5052763;28;20293;-78
2022/08/18 07:07:29;;;;;;;3.83;3.53;;;;;;;18.78;100.00;95911.72;5039043;28;20251;-78
2022/08/18 07:09:56;;;;;;;4.20;3.40;;;;;;;18.80;100.00;95920.44;5031481;28;20301;-78
2022/08/18 07:12:26;;;;;;;5.17;3.13;;;;;;;18.85;100.00;95923.94;5036206;28;20221;-78
2022/08/18 07:14:57;;;;;;;4.13;3.40;;;;;;;18.87;100.00;95919.00;5051744;28;20216;-77
2022/08/18 07:17:27;;;;;;;4.00;3.60;;;;;;;18.92;100.00;95911.81;5038296;28;20305;-77
2022/08/18 07:20:01;;;;;;;4.53;4.13;;;;;;;18.94;100.00;95917.81;5041283;28;20212;-77
2022/08/18 07:22:28;;;;;;;4.93;3.30;;;;;;;19.01;100.00;95915.53;5042969;28;20274;-77
2022/08/18 07:24:58;;;;;;;3.40;3.10;;;;;;;19.03;100.00;95910.59;5033812;28;20209;-77
2022/08/18 07:27:42;;;;;;;4.10;3.40;;;;;;;19.14;100.00;95912.09;5036718;28;20234;-76
2022/08/18 07:30:14;;;;;;;3.80;3.40;;;;;;;19.20;100.00;95922.66;5035588;28;20218;-77
2022/08/18 07:32:47;;;;;;;4.83;3.40;;;;;;;19.28;100.00;95919.25;5033436;28;20293;-76
2022/08/18 07:35:19;;;;;;;4.87;3.43;;;;;;;19.28;100.00;95910.22;5049906;28;20217;-75
2022/08/18 07:37:54;;;;;;;4.40;3.10;;;;;;;19.33;100.00;95904.66;5031815;28;20206;-75
2022/08/18 07:40:29;;;;;;;4.63;3.00;;;;;;;19.35;100.00;95894.25;5039258;28;20206;-76
2022/08/18 07:43:00;;;;;;;5.15;3.28;;;;;;;19.55;100.00;95904.94;5022442;28;20241;-76
2022/08/18 07:45:35;;;;;;;3.40;3.10;;;;;;;19.54;100.00;95897.81;5030568;28;20302;-75
2022/08/18 07:48:11;;;;;;;5.10;3.20;;;;;;;19.54;100.00;95892.34;5023292;28;20254;-76
2022/08/18 07:50:48;;;;;;;3.42;3.00;;;;;;;19.59;100.00;95892.25;5034327;28;20237;-75
2022/08/18 07:53:36;;;;;;;3.30;3.00;;;;;;;19.60;100.00;95891.13;5025045;28;20214;-75
2022/08/18 07:56:07;;;;;;;4.22;2.95;;;;;;;19.59;100.00;95886.78;5034184;28;20219;-77
2022/08/18 07:58:40;;;;;;;7.18;3.47;;;;;;;19.59;100.00;95878.56;5020413;28;20202;-76
2022/08/18 08:01:18;;;;;;;6.22;2.97;;;;;;;19.60;100.00;95863.75;5035264;28;20211;-76
2022/08/18 08:03:54;;;;;;;3.95;3.20;;;;;;;19.57;100.00;95864.34;5021996;28;20226;-78
2022/08/18 08:06:28;;;;;;;2.90;2.60;;;;;;;19.50;100.00;95885.00;5024853;28;20202;-75
2022/08/18 08:09:10;;;;;;;3.25;2.95;;;;;;;19.53;100.00;95892.63;5021742;28;20210;-75
2022/08/18 08:11:47;;;;;;;3.67;2.83;;;;;;;19.54;100.00;95892.34;5022655;28;20214;-76
2022/08/18 08:14:30;;;;;;;3.07;2.77;;;;;;;19.57;100.00;95888.16;5037141;28;20203;-76
2022/08/18 08:17:07;;;;;;;4.38;3.00;;;;;;;19.50;100.00;95894.03;5020172;28;20210;-75
2022/08/18 08:19:48;;;;;;;4.43;3.20;;;;;;;19.45;100.00;95894.09;5020038;28;20202;-76
2022/08/18 08:22:20;;;;;;;4.03;3.20;;;;;;;19.45;100.00;95896.81;5034606;28;20217;-76
2022/08/18 08:24:57;;;;;;;3.63;3.22;;;;;;;19.57;100.00;95890.91;5013117;28;20199;-76
2022/08/18 08:27:35;;;;;;;3.50;3.20;;;;;;;19.53;100.00;95890.72;5041009;28;20257;-76
2022/08/18 08:30:08;;;;;;;3.67;3.33;;;;;;;19.63;100.00;95898.78;5029745;28;20207;-75
2022/08/18 08:32:41;;;;;;;3.72;3.30;;;;;;;19.73;100.00;95894.25;5046501;28;20214;-76
2022/08/18 08:35:13;;;;;;;5.13;3.40;;;;;;;19.87;100.00;95889.59;5030182;28;20209;-78
2022/08/18 08:37:48;;;;;;;3.78;3.20;;;;;;;19.94;100.00;95890.84;5030831;28;20206;-75
2022/08/18 08:40:18;;;;;;;3.75;2.97;;;;;;;19.96;100.00;95887.81;5040429;28;20217;-76
2022/08/18 08:42:51;;;;;;;4.15;3.33;;;;;;;19.96;100.00;95880.41;5027964;28;20211;-76
2022/08/18 08:45:23;;;;;;;4.65;3.47;;;;;;;19.97;100.00;95873.00;5046089;28;20211;-75
2022/08/18 08:48:00;;;;;;;3.13;2.92;;;;;;;19.99;100.00;95881.72;5047400;28;20215;-76
2022/08/18 08:50:30;;;;;;;3.50;3.15;;;;;;;19.97;100.00;95878.47;5027419;28;20229;-76
2022/08/18 08:53:03;;;;;;;3.60;3.30;;;;;;;19.97;100.00;95876.56;5035776;28;20207;-75
2022/08/18 08:55:33;;;;;;;3.53;3.22;;;;;;;20.03;100.00;95874.53;5031057;28;20206;-76
2022/08/18 08:58:11;;;;;;;3.83;3.05;;;;;;;20.13;100.00;95871.59;5026509;28;20286;-75
2022/08/18 09:00:40;;;;;;;3.67;3.25;;;;;;;20.23;100.00;95879.63;5026717;28;20287;-76
2022/08/18 09:03:37;;;;;;;4.65;3.42;;;;;;;20.29;100.00;95889.38;5028461;28;20203;-75
2022/08/18 09:06:19;;;;;;;5.68;3.58;;;;;;;20.28;100.00;95893.25;5018941;28;20219;-76
2022/08/18 09:09:08;;;;;;;4.03;3.17;;;;;;;20.39;100.00;95871.97;5027787;28;20227;-76
2022/08/18 09:12:12;;;;;;;4.60;3.28;;;;;;;20.55;100.00;95883.44;5025841;28;20226;-75
2022/08/18 09:15:15;;;;;;;3.33;3.03;;;;;;;20.57;100.00;95881.22;5026269;28;20190;-76
2022/08/18 09:18:18;;;;;;;3.22;2.80;;;;;;;20.63;100.00;95880.00;5014137;28;20207;-76
2022/08/18 09:21:04;;;;;;;5.00;3.28;;;;;;;20.58;100.00;95886.41;5033026;28;20199;-76
2022/08/18 09:23:39;;;;;;;6.50;3.40;;;;;;;20.60;100.00;95880.59;5017281;28;20209;-76
2022/08/18 09:26:39;;;;;;;4.00;3.47;;;;;;;20.72;100.00;95875.41;5018119;28;20234;-76
2022/08/18 09:29:17;;;;;;;4.80;3.50;;;;;;;20.82;100.00;95883.44;5036229;28;20293;-76
2022/08/18 09:31:46;;;;;;;3.53;3.13;;;;;;;20.91;100.00;95875.31;5024229;28;20207;-76
2022/08/18 09:34:31;;;;;;;9.10;3.92;;;;;;;20.83;100.00;95862.31;5026352;28;20211;-76
2022/08/18 09:37:11;;;;;;;5.20;3.30;;;;;;;20.81;100.00;95859.84;5015265;28;20202;-78
2022/08/18 09:42:35;;;;;;;4.50;3.33;;;;;;;20.91;100.00;95851.41;5028693;28;20248;-76
2022/08/18 09:45:11;;;;;;;3.90;3.60;;;;;;;20.93;100.00;95831.88;5021838;28;20214;-76
2022/08/18 09:48:00;;;;;;;3.47;3.15;;;;;;;20.99;100.00;95827.91;5024614;28;20317;-77
2022/08/18 09:50:37;;;;;;;4.57;3.25;;;;;;;21.01;100.00;95823.72;5044340;28;20203;-76
2022/08/18 09:53:38;;;;;;;3.97;3.58;;;;;;;20.97;100.00;95819.97;5024289;28;20202;-76
2022/08/18 09:56:06;;;;;;;3.65;3.35;;;;;;;21.02;100.00;95822.59;5014140;28;20245;-78
2022/08/18 09:58:52;;;;;;;3.70;3.40;;;;;;;21.11;100.00;95820.75;5010163;28;20335;-77
2022/08/18 10:01:21;;;;;;;4.10;3.38;;;;;;;21.23;100.00;95811.19;5022265;28;20294;-76
2022/08/18 10:04:25;;;;;;;3.80;3.50;;;;;;;21.32;100.00;95810.13;5032452;28;20207;-77
2022/08/18 10:06:52;;;;;;;3.45;3.13;;;;;;;21.43;100.00;95821.69;5023750;28;20288;-76
2022/08/18 10:09:32;;;;;;;3.50;3.20;;;;;;;21.48;98.70;95813.31;5037706;28;20207;-77
2022/08/18 10:12:35;;;;;;;3.70;2.70;;;;;;;21.53;97.91;95815.94;5023137;28;20225;-77
2022/08/18 10:15:18;;;;;;;3.58;3.05;;;;;;;21.56;100.00;95812.56;4977243;28;20214;-80
2022/08/18 10:17:56;;;;;;;4.70;3.33;;;;;;;21.65;97.36;95813.44;5032508;28;20208;-79
2022/08/18 10:20:37;;;;;;;3.47;3.17;;;;;;;21.73;98.86;95809.94;5020642;28;20202;-79
2022/08/18 10:23:06;;;;;;;3.20;2.90;;;;;;;21.76;95.84;95798.31;5025704;28;20210;-79
2022/08/18 10:25:38;;;;;;;3.15;2.88;;;;;;;21.82;95.70;95775.06;5023951;28;20207;-79
2022/08/18 10:28:08;;;;;;;3.60;3.28;;;;;;;21.75;95.88;95774.72;5022597;28;20241;-78
2022/08/18 10:32:58;;;;;;;4.32;3.03;;;;;;;21.67;93.27;95767.25;5125777;27;20591;-80
2022/08/18 10:35:56;;;;;;;3.08;2.78;;;;;;;21.75;95.33;95766.47;5078682;28;20235;-80
2022/08/18 10:38:38;;;;;;;5.40;3.00;;;;;;;21.75;96.03;95765.66;5073077;28;20259;-80
2022/08/18 10:41:13;;;;;;;3.15;2.85;;;;;;;21.74;94.15;95758.53;5099329;28;20524;-80
2022/08/18 10:43:44;;;;;;;4.50;3.33;;;;;;;21.66;95.73;95760.13;5090194;28;20213;-79
2022/08/18 10:46:20;;;;;;;3.50;3.20;;;;;;;21.73;96.23;95765.97;5082299;28;20274;-79
2022/08/18 10:49:02;;;;;;;3.53;3.22;;;;;;;21.62;96.01;95780.28;5084821;28;20212;-80
2022/08/18 10:51:45;;;;;;;3.45;3.15;;;;;;;21.54;97.87;95779.09;5080869;28;20254;-80
2022/08/18 10:54:21;;;;;;;3.60;3.30;;;;;;;21.53;98.33;95777.47;5096586;28;20212;-80
2022/08/18 10:56:52;;;;;;;4.07;3.42;;;;;;;21.50;99.66;95767.13;5091218;28;20292;-80
2022/08/18 10:59:28;;;;;;;4.30;3.38;;;;;;;21.47;100.00;95774.06;5081868;28;20229;-80
2022/08/18 11:02:21;;;;;;;3.75;3.38;;;;;;;21.40;100.00;95767.38;5077993;28;20236;-80
2022/08/18 11:04:52;;;;;;;3.55;3.10;;;;;;;21.31;100.00;95774.75;5095716;28;20308;-80
2022/08/18 11:07:22;;;;;;;4.88;3.20;;;;;;;21.26;100.00;95777.63;5082336;28;20201;-80
2022/08/18 11:09:52;;;;;;;3.53;3.22;;;;;;;21.22;100.00;95760.97;5086028;28;20212;-80
2022/08/18 11:12:42;;;;;;;3.17;2.88;;;;;;;21.20;99.46;95763.19;5079336;28;20221;-79
2022/08/18 11:15:19;;;;;;;4.85;3.10;;;;;;;21.25;99.59;95768.59;5072941;28;20267;-80
2022/08/18 11:18:01;;;;;;;5.28;3.30;;;;;;;21.12;100.00;95772.16;5068940;28;20223;-80
2022/08/18 11:20:32;;;;;;;4.43;2.95;;;;;;;21.15;100.00;95769.59;5077778;28;20231;-80
2022/08/18 11:23:01;;;;;;;3.80;3.33;;;;;;;21.18;100.00;95767.41;5072103;28;20209;-80
2022/08/18 11:25:32;;;;;;;4.28;3.00;;;;;;;21.20;99.86;95759.63;5075598;28;20283;-80
2022/08/18 11:28:01;;;;;;;3.63;3.33;;;;;;;21.26;99.46;95753.72;5091648;28;20277;-80
2022/08/18 11:30:32;;;;;;;4.03;3.20;;;;;;;21.24;98.76;95755.16;5078608;28;20201;-80
2022/08/18 11:33:00;;;;;;;4.22;3.05;;;;;;;21.22;99.25;95755.47;5076532;28;20218;-79
2022/08/18 11:35:35;;;;;;;3.78;2.90;;;;;;;21.22;97.70;95762.88;5093306;28;20196;-80
2022/08/18 11:38:05;;;;;;;5.45;3.10;;;;;;;21.13;99.19;95773.78;5082744;28;20288;-80
2022/08/18 11:40:37;;;;;;;3.20;2.90;;;;;;;21.12;99.43;95788.63;5083142;28;20197;-79
2022/08/18 11:43:10;;;;;;;3.75;3.40;;;;;;;21.08;100.00;95791.19;5073632;28;20197;-80
2022/08/18 11:45:51;;;;;;;3.90;3.20;;;;;;;21.03;100.00;95785.81;5066957;28;20205;-79
2022/08/18 11:48:23;;;;;;;6.32;3.30;;;;;;;21.02;99.83;95783.34;5069653;28;20198;-79
2022/08/18 11:51:03;;;;;;;4.35;3.03;;;;;;;20.98;100.00;95783.19;5066406;28;20282;-80
2022/08/18 11:53:41;;;;;;;3.20;2.90;;;;;;;21.02;100.00;95789.66;5062939;28;20201;-79
2022/08/18 11:56:23;;;;;;;3.63;3.30;;;;;;;21.14;100.00;95791.88;5068873;28;20237;-80
2022/08/18 11:58:53;;;;;;;4.70;3.30;;;;;;;21.15;99.37;95785.25;5063311;28;20255;-79
2022/08/18 12:01:37;;;;;;;4.18;3.45;;;;;;;21.15;100.00;95777.84;5067836;28;20190;-80
2022/08/18 12:04:20;;;;;;;3.47;3.17;;;;;;;21.18;100.00;95778.38;5068898;28;20316;-80
2022/08/18 12:07:04;;;;;;;3.70;3.40;;;;;;;21.18;98.04;95772.88;5069442;28;20310;-79
2022/08/18 12:09:42;;;;;;;4.15;2.95;;;;;;;21.24;100.00;95768.88;5076043;28;20293;-80
2022/08/18 12:12:16;;;;;;;3.40;3.10;;;;;;;21.18;100.00;95775.63;5056682;28;20226;-80
2022/08/18 12:14:56;;;;;;;3.63;3.30;;;;;;;21.12;100.00;95778.44;5066201;28;20235;-80